Time;durP1;ratioP1;P1;durP2;ratioP2;P2;SDS_P1;SDS_P2;PMS_P1;PMS_P2;Temp;Humidity;BMP_temperature;BMP_pressure;BME280_temperature;BME280_humidity;BME280_pressure;Samples;Min_cycle;Max_cycle;Signal;HPM_P1;HPM_P2
2024/02/22 00:02:29;;;;;;;3.80;1.77;;;10.80;1.00;;;;;;6075578;23;20030;-80
2024/02/22 00:05:17;;;;;;;3.08;2.10;;;10.70;1.00;;;;;;6073615;23;20027;-80
2024/02/22 00:08:05;;;;;;;2.53;1.88;;;10.70;1.00;;;;;;6078607;23;20050;-79
2024/02/22 00:10:53;;;;;;;2.80;2.20;;;10.70;1.00;;;;;;6076825;23;20047;-80
2024/02/22 00:13:42;;;;;;;6.20;2.20;;;10.60;1.00;;;;;;6069999;23;20022;-83
2024/02/22 00:16:30;;;;;;;4.45;2.13;;;10.50;1.00;;;;;;6060369;23;20030;-80
2024/02/22 00:19:19;;;;;;;2.38;1.83;;;10.50;1.00;;;;;;6062063;23;20050;-80
2024/02/22 00:22:07;;;;;;;3.30;2.03;;;10.50;1.00;;;;;;6068749;23;20067;-80
2024/02/22 00:24:55;;;;;;;4.65;1.90;;;10.40;1.00;;;;;;6058558;23;20054;-81
2024/02/22 00:27:44;;;;;;;6.03;2.17;;;10.30;1.00;;;;;;6063716;23;20041;-78
2024/02/22 00:30:32;;;;;;;3.35;1.95;;;10.30;1.00;;;;;;6052519;23;20259;-82
2024/02/22 00:33:20;;;;;;;2.22;1.70;;;10.20;1.00;;;;;;6045466;23;20027;-79
2024/02/22 00:36:08;;;;;;;3.65;2.00;;;10.10;1.00;;;;;;6035542;23;20027;-81
2024/02/22 00:38:56;;;;;;;3.25;2.08;;;10.10;2.70;;;;;;6068639;23;20027;-79
2024/02/22 00:41:43;;;;;;;3.40;2.05;;;10.00;6.10;;;;;;6058470;23;20030;-82
2024/02/22 00:44:33;;;;;;;2.92;1.90;;;10.00;12.20;;;;;;6059065;23;20027;-83
2024/02/22 00:47:21;;;;;;;3.90;2.13;;;9.90;20.10;;;;;;6067982;23;20031;-80
2024/02/22 00:50:09;;;;;;;2.65;1.92;;;9.90;25.70;;;;;;6064465;23;20035;-82
2024/02/22 00:52:57;;;;;;;4.07;2.33;;;9.80;34.30;;;;;;6060145;23;20082;-79
2024/02/22 00:55:44;;;;;;;5.05;1.60;;;9.70;45.90;;;;;;6039680;23;20101;-80
2024/02/22 00:58:32;;;;;;;2.92;1.90;;;9.60;56.40;;;;;;6060873;23;20342;-80
2024/02/22 01:01:20;;;;;;;2.35;2.15;;;9.60;71.00;;;;;;6058620;23;20038;-80
2024/02/22 01:04:10;;;;;;;5.45;2.70;;;9.50;88.80;;;;;;6038342;23;20033;-81
2024/02/22 01:06:59;;;;;;;4.07;2.00;;;9.40;98.70;;;;;;6064926;23;20030;-76
2024/02/22 01:09:48;;;;;;;3.05;2.15;;;9.40;99.90;;;;;;6076507;23;20030;-82
2024/02/22 01:12:35;;;;;;;5.35;2.30;;;9.30;99.90;;;;;;6055768;23;20770;-80
2024/02/22 01:15:23;;;;;;;3.63;2.10;;;9.30;99.90;;;;;;6075515;23;20022;-78
2024/02/22 01:18:10;;;;;;;4.55;2.22;;;9.30;99.90;;;;;;6077797;23;20026;-79
2024/02/22 01:20:59;;;;;;;4.13;2.30;;;9.20;99.90;;;;;;6058216;23;20054;-81
2024/02/22 01:23:47;;;;;;;4.72;2.70;;;9.20;99.90;;;;;;6032895;23;20027;-83
2024/02/22 01:26:35;;;;;;;3.42;2.33;;;9.10;99.90;;;;;;6040539;23;20083;-80
2024/02/22 01:29:23;;;;;;;5.65;2.50;;;9.10;99.90;;;;;;6059870;23;20050;-79
2024/02/22 01:32:10;;;;;;;3.10;2.25;;;9.10;99.90;;;;;;6060396;23;20035;-83
2024/02/22 01:34:57;;;;;;;4.40;2.55;;;9.00;99.90;;;;;;6036012;23;20125;-81
2024/02/22 01:37:48;;;;;;;3.67;2.40;;;9.00;99.90;;;;;;6053997;23;20037;-81
2024/02/22 01:40:35;;;;;;;3.92;2.10;;;9.00;99.90;;;;;;6053423;23;20645;-81
2024/02/22 01:43:23;;;;;;;4.22;2.17;;;9.00;99.90;;;;;;6053787;23;20101;-80
2024/02/22 01:46:21;;;;;;;3.42;2.35;;;9.00;99.90;;;;;;6054637;23;20030;-81
2024/02/22 01:49:11;;;;;;;3.72;2.53;;;8.90;99.90;;;;;;6061084;23;20041;-80
2024/02/22 01:52:02;;;;;;;5.88;2.35;;;8.90;99.90;;;;;;6058924;23;20113;-80
2024/02/22 01:54:50;;;;;;;3.38;2.55;;;8.90;99.90;;;;;;6061922;23;20037;-81
2024/02/22 01:57:41;;;;;;;3.97;2.20;;;8.80;99.90;;;;;;6058347;23;20467;-81
2024/02/22 02:00:30;;;;;;;2.75;2.20;;;8.80;99.90;;;;;;6062284;23;20026;-82
2024/02/22 02:03:17;;;;;;;4.65;2.15;;;8.70;99.90;;;;;;6047017;23;20033;-81
2024/02/22 02:06:06;;;;;;;3.45;2.28;;;8.70;99.90;;;;;;6056899;23;20679;-79
2024/02/22 02:08:55;;;;;;;5.00;2.22;;;8.70;99.90;;;;;;6068427;23;20031;-79
2024/02/22 02:11:44;;;;;;;3.65;2.15;;;8.70;99.90;;;;;;6057351;23;20031;-79
2024/02/22 02:14:32;;;;;;;4.20;2.45;;;8.70;99.90;;;;;;6058739;23;20033;-82
2024/02/22 02:17:25;;;;;;;2.83;2.05;;;8.60;99.90;;;;;;6059658;23;20054;-82
2024/02/22 02:20:15;;;;;;;5.75;2.35;;;8.50;99.90;;;;;;6038603;23;20031;-84
2024/02/22 02:23:27;;;;;;;2.25;2.00;;;8.50;99.90;;;;;;6059765;23;20037;-81
2024/02/22 02:26:16;;;;;;;2.13;1.92;;;8.50;99.90;;;;;;6057362;23;20034;-82
2024/02/22 02:29:05;;;;;;;2.78;2.20;;;8.40;99.90;;;;;;6036179;23;20027;-83
2024/02/22 02:31:52;;;;;;;2.97;1.95;;;8.40;99.90;;;;;;6059421;23;20023;-77
2024/02/22 02:34:47;;;;;;;2.40;2.20;;;8.30;99.90;;;;;;6055222;23;20031;-81
2024/02/22 02:37:38;;;;;;;2.47;2.17;;;8.20;1.00;;;;;;6058404;23;20082;-82
2024/02/22 02:40:30;;;;;;;4.85;2.78;;;8.20;1.00;;;;;;6057884;23;20049;-80
2024/02/22 02:43:17;;;;;;;5.03;2.67;;;8.00;1.00;;;;;;6055601;23;20108;-80
2024/02/22 02:46:05;;;;;;;2.35;2.00;;;8.00;1.00;;;;;;6068440;23;20510;-83
2024/02/22 02:48:55;;;;;;;2.63;2.20;;;7.90;1.00;;;;;;6038492;23;20046;-80
2024/02/22 02:51:43;;;;;;;2.05;1.85;;;7.90;29.70;;;;;;6057233;23;20482;-81
2024/02/22 02:54:32;;;;;;;2.35;2.10;;;7.80;93.00;;;;;;6046952;23;20037;-80
2024/02/22 02:57:24;;;;;;;3.83;2.35;;;7.80;99.90;;;;;;6063309;23;20026;-80
2024/02/22 03:00:14;;;;;;;4.60;1.95;;;7.80;99.90;;;;;;6068211;23;20037;-81
2024/02/22 03:03:02;;;;;;;2.90;2.03;;;7.70;99.90;;;;;;6037558;23;20027;-80
2024/02/22 03:05:52;;;;;;;2.40;1.85;;;7.70;99.90;;;;;;6061036;23;20035;-80
2024/02/22 03:08:42;;;;;;;5.45;2.05;;;7.70;99.90;;;;;;6059478;23;20099;-80
2024/02/22 03:11:32;;;;;;;3.33;2.28;;;7.70;99.90;;;;;;6039578;23;20054;-83
2024/02/22 03:14:20;;;;;;;2.60;2.10;;;7.60;99.90;;;;;;6057479;23;20043;-82
2024/02/22 03:17:09;;;;;;;2.30;2.10;;;7.60;99.90;;;;;;6037693;23;20037;-83
2024/02/22 03:20:00;;;;;;;2.95;2.33;;;7.60;1.00;;;;;;6060172;23;20034;-83
2024/02/22 03:22:48;;;;;;;3.85;2.70;;;7.50;1.00;;;;;;6060429;23;20034;-83
2024/02/22 03:25:35;;;;;;;6.97;2.55;;;7.40;1.00;;;;;;6060348;23;20031;-82
2024/02/22 03:28:23;;;;;;;3.45;2.35;;;7.40;33.90;;;;;;6070698;23;20062;-83
2024/02/22 03:31:11;;;;;;;3.42;2.40;;;7.40;99.90;;;;;;6077223;23;20034;-77
2024/02/22 03:34:00;;;;;;;3.58;2.53;;;7.40;99.90;;;;;;6063639;23;20030;-81
2024/02/22 03:36:48;;;;;;;3.17;2.42;;;7.40;99.90;;;;;;6068311;23;20082;-77
2024/02/22 03:39:35;;;;;;;3.10;2.58;;;7.40;99.90;;;;;;6052517;23;20030;-83
2024/02/22 03:42:28;;;;;;;3.45;2.22;;;7.30;99.90;;;;;;6036568;23;20027;-82
2024/02/22 03:45:16;;;;;;;4.80;2.35;;;7.30;1.00;;;;;;6072302;23;20454;-82
2024/02/22 03:48:04;;;;;;;3.60;2.10;;;7.30;1.00;;;;;;6070250;23;20019;-85
2024/02/22 03:50:51;;;;;;;3.03;1.75;;;7.30;58.90;;;;;;6060742;23;20030;-80
2024/02/22 03:53:39;;;;;;;3.42;2.45;;;7.30;99.90;;;;;;6046144;23;20030;-80
2024/02/22 03:56:28;;;;;;;3.88;2.28;;;7.30;99.90;;;;;;6042866;23;20023;-82
2024/02/22 03:59:16;;;;;;;2.42;2.03;;;7.30;99.90;;;;;;6062607;23;20034;-79
2024/02/22 04:02:04;;;;;;;4.20;2.53;;;7.30;99.90;;;;;;6061998;23;20063;-82
2024/02/22 04:05:06;;;;;;;3.63;2.50;;;7.30;1.00;;;;;;6062993;23;20023;-81
2024/02/22 04:07:53;;;;;;;4.75;2.40;;;7.30;1.00;;;;;;6060625;23;20026;-81
2024/02/22 04:10:42;;;;;;;6.32;2.20;;;7.20;54.70;;;;;;6060525;23;20046;-79
2024/02/22 04:13:37;;;;;;;3.13;2.25;;;7.20;99.90;;;;;;6060759;23;20023;-82
2024/02/22 04:16:25;;;;;;;7.57;2.20;;;7.30;99.90;;;;;;6060144;23;20023;-80
2024/02/22 04:19:12;;;;;;;4.13;2.05;;;7.30;99.90;;;;;;6061154;23;20031;-81
2024/02/22 04:22:04;;;;;;;4.05;2.40;;;7.20;1.00;;;;;;6040311;23;20454;-79
2024/02/22 04:24:52;;;;;;;2.58;2.13;;;7.30;1.00;;;;;;6069008;23;20033;-79
2024/02/22 04:27:43;;;;;;;3.72;2.22;;;7.20;99.70;;;;;;6060674;23;20710;-85
2024/02/22 04:30:33;;;;;;;2.38;2.13;;;7.30;99.90;;;;;;6066783;23;20034;-82
2024/02/22 04:33:32;;;;;;;2.33;2.13;;;7.30;99.90;;;;;;6071079;23;20037;-80
2024/02/22 04:36:21;;;;;;;3.55;2.30;;;7.30;99.90;;;;;;6034732;23;20054;-81
2024/02/22 04:39:09;;;;;;;4.03;2.40;;;7.20;1.00;;;;;;6070129;23;20027;-81
2024/02/22 04:41:57;;;;;;;3.88;2.60;;;7.30;1.00;;;;;;6045285;23;20046;-82
2024/02/22 04:44:45;;;;;;;6.15;1.98;;;7.30;6.70;;;;;;6037365;23;20027;-79
2024/02/22 04:47:36;;;;;;;3.40;2.10;;;7.30;28.90;;;;;;6060563;23;20101;-84
2024/02/22 04:50:28;;;;;;;1.90;1.70;;;7.40;94.00;;;;;;6061031;23;20022;-83
2024/02/22 04:53:16;;;;;;;2.75;1.98;;;7.40;94.90;;;;;;6066579;23;20030;-81
2024/02/22 04:56:04;;;;;;;2.92;2.03;;;7.30;99.90;;;;;;6060651;23;20023;-80
2024/02/22 04:58:52;;;;;;;1.95;1.73;;;7.40;99.90;;;;;;6065284;23;20026;-79
2024/02/22 05:01:41;;;;;;;2.97;2.35;;;7.40;99.90;;;;;;6049391;23;20078;-82
2024/02/22 05:04:29;;;;;;;3.53;1.88;;;7.30;99.90;;;;;;6061619;23;20260;-80
2024/02/22 05:07:17;;;;;;;3.47;2.08;;;7.30;1.00;;;;;;6039254;23;20039;-83
2024/02/22 05:10:06;;;;;;;3.13;1.70;;;7.30;22.50;;;;;;6061524;23;20478;-82
2024/02/22 05:12:54;;;;;;;3.03;2.30;;;7.30;99.90;;;;;;6039668;23;20868;-81
2024/02/22 05:15:42;;;;;;;3.45;2.00;;;7.30;99.90;;;;;;6072809;23;20031;-81
2024/02/22 05:18:29;;;;;;;3.45;2.53;;;7.30;41.60;;;;;;6071310;23;20034;-79
2024/02/22 05:21:17;;;;;;;4.45;2.03;;;7.30;99.90;;;;;;6034711;23;20118;-82
2024/02/22 05:24:04;;;;;;;2.97;2.15;;;7.30;1.00;;;;;;6064967;23;20023;-80
2024/02/22 05:26:52;;;;;;;3.85;2.40;;;7.30;1.00;;;;;;6066372;23;20423;-83
2024/02/22 05:29:41;;;;;;;3.45;2.42;;;7.30;99.90;;;;;;6043265;23;20415;-80
2024/02/22 05:32:28;;;;;;;3.47;2.45;;;7.30;1.00;;;;;;6047603;23;20026;-83
2024/02/22 05:35:15;;;;;;;4.13;2.33;;;7.30;99.90;;;;;;6067417;23;20058;-83
2024/02/22 05:38:04;;;;;;;3.03;2.13;;;7.30;99.90;;;;;;6041761;23;20134;-80
2024/02/22 05:40:51;;;;;;;2.55;2.20;;;7.30;99.90;;;;;;6066730;23;20026;-78
2024/02/22 05:43:41;;;;;;;2.50;2.30;;;7.30;99.90;;;;;;6070677;23;20053;-79
2024/02/22 05:46:28;;;;;;;2.60;2.20;;;7.30;1.00;;;;;;6072048;23;20046;-76
2024/02/22 05:49:17;;;;;;;3.15;2.30;;;7.30;1.00;;;;;;6070968;23;20034;-80
2024/02/22 05:52:05;;;;;;;3.60;2.22;;;7.30;1.00;;;;;;6039209;23;20031;-81
2024/02/22 05:54:53;;;;;;;3.85;2.40;;;7.30;21.70;;;;;;6040288;23;20031;-80
2024/02/22 05:57:41;;;;;;;3.00;2.17;;;7.30;46.50;;;;;;6072750;23;20019;-79
2024/02/22 06:00:30;;;;;;;3.75;2.92;;;7.30;87.70;;;;;;6049990;23;20114;-81
2024/02/22 06:03:17;;;;;;;4.85;2.75;;;7.40;70.10;;;;;;6038800;23;20031;-81
2024/02/22 06:06:07;;;;;;;2.47;2.28;;;7.40;51.50;;;;;;6065753;23;20027;-83
2024/02/22 06:08:55;;;;;;;2.63;2.20;;;7.40;40.20;;;;;;6071898;23;20027;-78
2024/02/22 06:11:46;;;;;;;3.42;2.50;;;7.40;1.00;;;;;;6073989;23;20178;-80
2024/02/22 06:14:35;;;;;;;4.22;2.55;;;7.40;1.00;;;;;;6073288;23;20041;-82
2024/02/22 06:17:22;;;;;;;3.00;2.30;;;7.50;1.00;;;;;;6078310;23;20022;-81
2024/02/22 06:20:10;;;;;;;2.92;2.55;;;7.40;1.00;;;;;;6066204;23;20440;-83
2024/02/22 06:22:59;;;;;;;4.28;2.47;;;7.40;71.50;;;;;;6066929;23;20022;-82
2024/02/22 06:25:47;;;;;;;3.78;2.47;;;7.50;40.50;;;;;;6051897;23;20094;-82
2024/02/22 06:28:38;;;;;;;2.28;1.92;;;7.50;48.10;;;;;;6060014;23;20034;-81
2024/02/22 06:31:27;;;;;;;3.75;2.22;;;7.50;1.00;;;;;;6059365;23;20046;-79
2024/02/22 06:34:16;;;;;;;2.03;1.80;;;7.50;1.00;;;;;;6059915;23;20037;-78
2024/02/22 06:37:05;;;;;;;4.65;2.28;;;7.50;1.00;;;;;;6038260;23;20030;-82
2024/02/22 06:39:54;;;;;;;2.67;2.40;;;7.50;38.70;;;;;;6056358;23;20027;-78
2024/02/22 06:42:42;;;;;;;3.53;2.20;;;7.40;92.70;;;;;;6036128;23;20038;-81
2024/02/22 06:45:29;;;;;;;7.18;3.03;;;7.50;99.90;;;;;;6068211;23;20019;-79
2024/02/22 06:48:23;;;;;;;4.57;2.90;;;7.50;96.70;;;;;;6068608;23;20031;-80
2024/02/22 06:51:10;;;;;;;5.22;3.47;;;7.50;91.20;;;;;;6032408;23;20370;-79
2024/02/22 06:53:58;;;;;;;5.18;3.60;;;7.50;68.70;;;;;;6067890;23;20045;-80
2024/02/22 06:56:45;;;;;;;9.10;4.82;;;7.50;96.80;;;;;;6055673;23;20466;-80
2024/02/22 06:59:36;;;;;;;10.52;5.03;;;7.50;49.50;;;;;;6044052;23;20080;-81
2024/02/22 07:02:24;;;;;;;10.10;5.38;;;7.60;6.20;;;;;;6069414;23;20118;-78
2024/02/22 07:05:18;;;;;;;11.13;5.60;;;7.50;1.00;;;;;;6077264;23;20023;-80
2024/02/22 07:08:05;;;;;;;12.80;6.78;;;7.60;1.00;;;;;;6069392;23;20034;-79
2024/02/22 07:10:53;;;;;;;11.18;6.32;;;7.60;1.00;;;;;;6056318;23;20027;-81
2024/02/22 07:13:43;;;;;;;12.88;6.78;;;7.50;1.00;;;;;;6036036;23;20079;-81
2024/02/22 07:16:34;;;;;;;12.35;6.80;;;7.60;1.00;;;;;;6037927;23;20358;-80
2024/02/22 07:19:22;;;;;;;13.30;6.15;;;7.60;1.00;;;;;;6037423;23;20735;-80
2024/02/22 07:22:11;;;;;;;10.75;6.00;;;7.50;1.00;;;;;;6040688;23;20055;-80
2024/02/22 07:24:59;;;;;;;10.23;5.18;;;7.50;1.00;;;;;;6065813;23;20514;-78
2024/02/22 07:27:50;;;;;;;11.32;6.32;;;7.60;1.00;;;;;;6062271;23;20113;-78
2024/02/22 07:30:39;;;;;;;9.68;5.10;;;7.60;1.00;;;;;;6045735;23;20065;-77
2024/02/22 07:33:29;;;;;;;9.52;4.50;;;7.60;1.00;;;;;;6058133;23;20034;-78
2024/02/22 07:36:19;;;;;;;6.28;4.22;;;7.60;1.00;;;;;;6041445;23;20038;-79
2024/02/22 07:39:07;;;;;;;6.57;4.32;;;7.60;1.00;;;;;;6055926;23;20027;-81
2024/02/22 07:41:55;;;;;;;8.10;4.20;;;7.60;1.00;;;;;;6069048;23;20051;-78
2024/02/22 07:44:44;;;;;;;6.32;3.35;;;7.60;99.90;;;;;;6055427;23;20482;-80
2024/02/22 07:47:33;;;;;;;5.28;3.30;;;7.60;99.90;;;;;;6057954;23;20058;-78
2024/02/22 07:50:22;;;;;;;4.05;2.70;;;7.70;99.90;;;;;;6057925;23;20055;-79
2024/02/22 07:53:09;;;;;;;3.65;2.40;;;7.70;99.90;;;;;;6058784;23;20042;-78
2024/02/22 07:55:57;;;;;;;3.40;2.22;;;7.70;99.90;;;;;;6037429;23;20444;-76
2024/02/22 07:58:48;;;;;;;3.45;2.30;;;7.60;99.90;;;;;;6059659;23;20061;-78
2024/02/22 08:01:40;;;;;;;3.13;1.80;;;7.70;99.90;;;;;;6059377;23;20023;-77
2024/02/22 08:04:28;;;;;;;1.63;1.52;;;7.70;99.90;;;;;;6056383;23;20720;-77
2024/02/22 08:07:19;;;;;;;2.13;1.60;;;7.70;1.00;;;;;;6040791;23;20370;-78
2024/02/22 08:10:07;;;;;;;2.13;1.45;;;7.70;1.00;;;;;;6062258;23;20474;-79
2024/02/22 08:12:58;;;;;;;1.27;1.20;;;7.70;1.00;;;;;;6061600;23;20505;-81
2024/02/22 08:15:45;;;;;;;1.42;1.33;;;7.70;99.90;;;;;;6068509;23;20366;-80
2024/02/22 08:18:34;;;;;;;4.05;1.40;;;7.70;17.50;;;;;;6032902;23;20073;-78
2024/02/22 08:21:24;;;;;;;3.05;1.30;;;7.70;45.50;;;;;;6067143;23;20023;-78
2024/02/22 08:24:11;;;;;;;1.05;1.00;;;7.70;99.60;;;;;;6052559;23;20122;-80
2024/02/22 08:26:59;;;;;;;1.30;1.20;;;7.80;6.50;;;;;;6046666;23;20031;-78
2024/02/22 08:29:50;;;;;;;2.25;1.10;;;7.80;1.00;;;;;;6041909;23;20030;-79
2024/02/22 08:32:38;;;;;;;1.30;1.20;;;7.80;1.00;;;;;;6035068;23;20139;-79
2024/02/22 08:35:28;;;;;;;1.92;1.48;;;7.80;25.10;;;;;;6057374;23;20027;-79
2024/02/22 08:38:16;;;;;;;2.15;1.33;;;7.80;1.00;;;;;;6059114;23;20034;-79
2024/02/22 08:41:05;;;;;;;1.30;1.20;;;7.90;99.90;;;;;;6038764;23;20084;-78
2024/02/22 08:43:54;;;;;;;1.20;1.10;;;7.90;99.90;;;;;;6042950;23;20055;-80
2024/02/22 08:46:42;;;;;;;3.50;1.30;;;7.90;99.90;;;;;;6062675;23;20030;-80
2024/02/22 08:49:32;;;;;;;1.00;1.00;;;7.90;82.80;;;;;;6058054;23;20825;-79
2024/02/22 08:52:20;;;;;;;2.05;1.20;;;8.00;1.00;;;;;;6066188;23;20042;-79
2024/02/22 08:55:12;;;;;;;1.70;1.10;;;7.90;1.00;;;;;;6069044;23;20490;-81
2024/02/22 08:58:01;;;;;;;0.80;0.80;;;8.00;99.90;;;;;;6041408;23;20067;-77
2024/02/22 09:00:50;;;;;;;1.02;1.00;;;8.00;99.90;;;;;;6078152;23;20554;-77
2024/02/22 09:03:38;;;;;;;0.80;0.80;;;8.00;98.80;;;;;;6068574;23;20126;-78
2024/02/22 09:06:27;;;;;;;4.32;1.45;;;8.00;5.40;;;;;;6072075;23;20030;-77
2024/02/22 09:09:15;;;;;;;0.80;0.80;;;8.00;1.00;;;;;;6078555;23;20026;-80
2024/02/22 09:12:04;;;;;;;0.90;0.90;;;8.10;1.00;;;;;;6059835;23;20029;-79
2024/02/22 09:14:52;;;;;;;0.90;0.90;;;8.10;1.00;;;;;;6061836;23;20027;-78
2024/02/22 09:17:41;;;;;;;2.63;1.10;;;8.10;99.90;;;;;;6060789;23;20026;-78
2024/02/22 09:20:29;;;;;;;2.03;1.30;;;8.10;99.90;;;;;;6054640;23;20476;-79
2024/02/22 09:23:17;;;;;;;0.95;0.80;;;8.10;58.60;;;;;;6035930;23;20141;-81
2024/02/22 09:26:04;;;;;;;0.85;0.70;;;8.10;1.00;;;;;;6055112;23;20022;-79
2024/02/22 09:28:52;;;;;;;1.10;0.80;;;8.20;1.00;;;;;;6056597;23;20035;-80
2024/02/22 09:31:40;;;;;;;1.15;0.73;;;8.20;99.90;;;;;;6035839;23;20054;-79
2024/02/22 09:34:28;;;;;;;0.70;0.70;;;8.20;99.90;;;;;;6057466;23;20133;-80
2024/02/22 09:37:16;;;;;;;0.80;0.80;;;8.30;99.90;;;;;;6055029;23;20054;-81
2024/02/22 09:40:04;;;;;;;0.70;0.70;;;8.30;99.90;;;;;;6036341;23;20031;-79
2024/02/22 09:42:52;;;;;;;0.93;0.70;;;8.30;99.90;;;;;;6072452;23;20029;-78
2024/02/22 09:45:44;;;;;;;1.85;0.70;;;8.30;52.20;;;;;;6056772;23;20022;-81
2024/02/22 09:48:33;;;;;;;1.60;1.02;;;8.30;99.90;;;;;;6059771;23;20113;-76
2024/02/22 09:51:23;;;;;;;0.60;0.60;;;8.40;34.00;;;;;;6067503;23;20027;-78
2024/02/22 09:54:11;;;;;;;0.95;0.80;;;8.40;1.00;;;;;;6050012;23;20023;-78
2024/02/22 09:57:00;;;;;;;0.70;0.70;;;8.40;1.00;;;;;;6067115;23;20023;-78
2024/02/22 09:59:49;;;;;;;1.30;0.75;;;8.40;1.00;;;;;;6057295;23;20023;-78
2024/02/22 10:02:44;;;;;;;1.75;0.85;;;8.40;1.00;;;;;;6056088;23;20038;-81
2024/02/22 10:05:38;;;;;;;0.60;0.60;;;8.40;99.90;;;;;;6055976;23;20150;-80
2024/02/22 10:08:26;;;;;;;0.70;0.70;;;8.50;99.90;;;;;;6053522;23;20035;-81
2024/02/22 10:11:19;;;;;;;0.68;0.68;;;8.50;99.90;;;;;;6056213;23;20053;-78
2024/02/22 10:14:07;;;;;;;1.02;0.90;;;8.50;99.90;;;;;;6036793;23;20362;-79
2024/02/22 10:17:06;;;;;;;0.80;0.80;;;8.50;99.90;;;;;;6054754;23;20026;-78
2024/02/22 10:20:07;;;;;;;4.00;0.90;;;8.50;99.90;;;;;;6058133;23;20058;-78
2024/02/22 10:23:04;;;;;;;0.70;0.70;;;8.50;99.90;;;;;;6057753;23;20027;-79
2024/02/22 10:26:02;;;;;;;0.95;0.70;;;8.50;99.90;;;;;;6058128;23;20113;-78
2024/02/22 10:29:09;;;;;;;1.10;1.00;;;8.50;99.90;;;;;;6062765;23;20014;-79
2024/02/22 10:31:56;;;;;;;1.10;1.00;;;8.50;99.90;;;;;;6076343;23;20036;-78
2024/02/22 10:34:49;;;;;;;0.93;0.90;;;8.50;1.00;;;;;;6047882;23;20716;-80
2024/02/22 10:37:37;;;;;;;0.80;0.80;;;8.50;1.00;;;;;;6054779;23;20019;-79
2024/02/22 10:40:26;;;;;;;1.85;0.80;;;8.50;15.30;;;;;;6055308;23;20424;-79
2024/02/22 10:43:14;;;;;;;0.70;0.70;;;8.50;28.80;;;;;;6058193;23;20082;-80
2024/02/22 10:46:03;;;;;;;0.80;0.80;;;8.60;99.90;;;;;;6058266;23;20082;-80
2024/02/22 10:48:51;;;;;;;0.88;0.70;;;8.60;99.90;;;;;;6056108;23;20581;-80
2024/02/22 10:51:41;;;;;;;0.88;0.88;;;8.60;1.00;;;;;;6065943;23;20078;-81
2024/02/22 10:54:31;;;;;;;0.70;0.70;;;8.60;49.80;;;;;;6055597;23;20114;-79
2024/02/22 10:57:22;;;;;;;0.77;0.77;;;8.60;99.90;;;;;;6062968;23;20027;-79
2024/02/22 11:00:12;;;;;;;1.33;0.60;;;8.60;1.00;;;;;;6054326;23;20034;-81
2024/02/22 11:03:00;;;;;;;3.47;0.80;;;8.50;99.90;;;;;;6046561;23;20027;-80
2024/02/22 11:05:48;;;;;;;1.02;0.85;;;8.50;99.90;;;;;;6037054;23;20037;-78
2024/02/22 11:08:46;;;;;;;0.93;0.90;;;8.50;99.90;;;;;;6057576;23;20034;-80
2024/02/22 11:11:42;;;;;;;1.90;0.90;;;8.50;99.90;;;;;;6059977;23;20498;-79
2024/02/22 11:14:40;;;;;;;0.70;0.70;;;8.50;99.90;;;;;;6060418;23;20721;-80
2024/02/22 11:17:30;;;;;;;1.67;0.82;;;8.50;99.90;;;;;;6038383;23;20027;-79
2024/02/22 11:20:18;;;;;;;0.80;0.80;;;8.50;1.00;;;;;;6061526;23;20463;-80
2024/02/22 11:23:18;;;;;;;1.33;0.88;;;8.40;1.00;;;;;;6060882;23;20027;-79
2024/02/22 11:26:08;;;;;;;0.73;0.73;;;8.50;99.90;;;;;;6032175;23;20027;-81
2024/02/22 11:28:59;;;;;;;1.02;0.90;;;8.50;99.90;;;;;;6056435;23;20023;-81
2024/02/22 11:31:49;;;;;;;1.27;0.70;;;8.40;99.90;;;;;;6057558;23;20050;-79
2024/02/22 11:34:37;;;;;;;0.95;0.70;;;8.40;99.90;;;;;;6057992;23;20075;-80
2024/02/22 11:37:25;;;;;;;1.48;0.90;;;8.40;1.00;;;;;;6056177;23;20027;-82
2024/02/22 11:40:18;;;;;;;1.40;0.82;;;8.40;1.00;;;;;;6056536;23;20034;-80
2024/02/22 11:43:08;;;;;;;0.63;0.60;;;8.50;99.90;;;;;;6057955;23;20058;-80
2024/02/22 11:46:04;;;;;;;0.68;0.60;;;8.50;99.90;;;;;;6058949;23;20030;-80
2024/02/22 11:48:53;;;;;;;1.20;0.80;;;8.60;99.90;;;;;;6060327;23;20157;-80
2024/02/22 11:51:43;;;;;;;1.10;1.00;;;8.60;99.90;;;;;;6062612;23;20031;-82
2024/02/22 11:54:31;;;;;;;1.55;1.00;;;8.70;99.90;;;;;;6069138;23;20114;-83
2024/02/22 11:57:20;;;;;;;0.90;0.90;;;8.90;99.90;;;;;;6060277;23;20022;-81
2024/02/22 12:00:09;;;;;;;0.82;0.82;;;9.10;99.90;;;;;;6056157;23;20023;-78
2024/02/22 12:02:58;;;;;;;0.73;0.73;;;9.30;1.00;;;;;;6073479;23;20029;-78
2024/02/22 12:05:46;;;;;;;0.57;0.57;;;9.50;99.90;;;;;;6035618;23;20025;-78
2024/02/22 12:08:34;;;;;;;0.65;0.65;;;9.70;1.00;;;;;;6058782;23;20027;-77
2024/02/22 12:11:23;;;;;;;0.50;0.50;;;9.60;77.80;;;;;;6058145;23;20054;-79
2024/02/22 12:14:13;;;;;;;1.38;0.63;;;9.60;99.90;;;;;;6057589;23;20027;-78
2024/02/22 12:17:01;;;;;;;0.60;0.60;;;9.40;1.00;;;;;;6028677;23;20030;-77
2024/02/22 12:19:53;;;;;;;0.70;0.70;;;9.20;99.90;;;;;;6075305;23;20034;-78
2024/02/22 12:22:47;;;;;;;0.82;0.82;;;9.20;1.00;;;;;;6055563;23;20026;-77
2024/02/22 12:25:35;;;;;;;0.70;0.70;;;9.10;99.90;;;;;;6070234;23;20030;-80
2024/02/22 12:28:24;;;;;;;0.60;0.60;;;9.10;99.90;;;;;;6056205;23;20030;-79
2024/02/22 12:31:12;;;;;;;0.73;0.73;;;9.00;12.90;;;;;;6068012;23;20599;-81
2024/02/22 12:34:00;;;;;;;0.70;0.70;;;9.00;1.00;;;;;;6069104;23;20404;-80
2024/02/22 12:36:49;;;;;;;2.75;0.70;;;9.10;99.90;;;;;;6059053;23;20038;-80
2024/02/22 12:39:37;;;;;;;0.90;0.70;;;9.10;99.90;;;;;;6062187;23;20030;-78
2024/02/22 12:42:25;;;;;;;2.63;0.85;;;9.20;99.90;;;;;;6047970;23;20038;-79
2024/02/22 12:45:16;;;;;;;0.98;0.80;;;9.10;99.90;;;;;;6062576;23;20031;-81
2024/02/22 12:48:07;;;;;;;0.65;0.65;;;9.10;99.90;;;;;;6043215;23;20033;-81
2024/02/22 12:50:55;;;;;;;0.70;0.70;;;9.00;99.90;;;;;;6069113;23;20035;-81
2024/02/22 12:53:46;;;;;;;0.60;0.60;;;8.90;86.90;;;;;;6060499;23;20055;-81
2024/02/22 12:56:34;;;;;;;0.60;0.60;;;8.90;60.80;;;;;;6037881;23;20023;-80
2024/02/22 12:59:22;;;;;;;0.68;0.68;;;8.80;99.90;;;;;;6036689;23;20030;-80
2024/02/22 13:02:10;;;;;;;0.65;0.65;;;8.80;99.90;;;;;;6058055;23;20091;-79
2024/02/22 13:04:59;;;;;;;1.40;0.88;;;8.80;99.90;;;;;;6059477;23;20038;-79
2024/02/22 13:07:49;;;;;;;0.70;0.70;;;8.80;99.90;;;;;;6036994;23;20031;-79
2024/02/22 13:10:36;;;;;;;1.00;0.90;;;8.70;1.00;;;;;;6056420;23;20038;-80
2024/02/22 13:13:24;;;;;;;1.83;0.80;;;8.70;1.00;;;;;;6059958;23;20027;-79
2024/02/22 13:16:13;;;;;;;1.05;0.60;;;8.70;99.90;;;;;;6037610;23;20031;-80
2024/02/22 13:19:00;;;;;;;1.10;1.00;;;8.60;99.90;;;;;;6035866;23;20037;-81
2024/02/22 13:21:48;;;;;;;0.90;0.90;;;8.60;99.90;;;;;;6066873;23;20031;-79
2024/02/22 13:24:37;;;;;;;2.53;0.80;;;8.60;1.00;;;;;;6067229;23;20144;-80
2024/02/22 13:27:26;;;;;;;1.15;0.82;;;8.60;73.10;;;;;;6059426;23;20198;-78
2024/02/22 13:30:14;;;;;;;0.70;0.70;;;8.60;99.90;;;;;;6059888;23;20484;-78
2024/02/22 13:33:02;;;;;;;0.90;0.90;;;8.60;1.00;;;;;;6067600;23;20598;-79
2024/02/22 13:35:50;;;;;;;4.60;0.90;;;8.60;1.00;;;;;;6037341;23;20547;-78
2024/02/22 13:38:38;;;;;;;0.80;0.60;;;8.60;99.90;;;;;;6042588;23;20024;-78
2024/02/22 13:41:28;;;;;;;1.15;1.00;;;8.60;99.90;;;;;;6058459;23;20162;-81
2024/02/22 13:44:16;;;;;;;2.38;1.08;;;8.50;1.00;;;;;;6057928;23;20030;-78
2024/02/22 13:47:15;;;;;;;0.90;0.90;;;8.50;1.00;;;;;;6057174;23;20133;-80
2024/02/22 13:50:04;;;;;;;1.80;0.88;;;8.60;1.00;;;;;;6060151;23;20087;-82
2024/02/22 13:52:52;;;;;;;0.70;0.70;;;8.60;99.90;;;;;;6037540;23;20121;-80
2024/02/22 13:55:40;;;;;;;1.20;1.10;;;8.50;99.90;;;;;;6075547;23;20018;-79
2024/02/22 13:58:29;;;;;;;1.65;0.75;;;8.50;1.00;;;;;;6075087;23;20541;-78
2024/02/22 14:01:17;;;;;;;0.90;0.90;;;8.50;1.00;;;;;;6067504;23;20074;-76
2024/02/22 14:04:09;;;;;;;0.82;0.82;;;8.50;99.90;;;;;;6042082;23;20038;-77
2024/02/22 14:07:00;;;;;;;1.38;1.10;;;8.60;99.90;;;;;;6055758;23;20023;-80
2024/02/22 14:09:49;;;;;;;1.20;1.10;;;8.70;99.90;;;;;;6070268;23;20034;-79
2024/02/22 14:12:37;;;;;;;0.80;0.80;;;8.80;1.00;;;;;;6067566;23;20023;-78
2024/02/22 14:15:25;;;;;;;1.10;1.00;;;8.80;46.20;;;;;;6048523;23;20141;-78
2024/02/22 14:18:13;;;;;;;0.80;0.80;;;8.80;1.00;;;;;;6065526;23;20037;-80
2024/02/22 14:21:02;;;;;;;0.90;0.90;;;8.80;99.90;;;;;;6061351;23;20023;-79
2024/02/22 14:23:50;;;;;;;1.10;1.00;;;8.90;99.90;;;;;;6055636;23;20343;-79
2024/02/22 14:26:39;;;;;;;1.40;1.30;;;8.90;99.90;;;;;;6035470;23;20026;-81
2024/02/22 14:29:27;;;;;;;1.65;0.80;;;8.90;1.00;;;;;;6058430;23;20054;-79
2024/02/22 14:32:14;;;;;;;0.70;0.70;;;8.90;1.00;;;;;;6054920;23;20113;-80
2024/02/22 14:35:01;;;;;;;1.15;0.90;;;8.90;99.90;;;;;;6057799;23;20058;-80
2024/02/22 14:37:49;;;;;;;1.00;0.90;;;8.80;99.90;;;;;;6056344;23;20038;-78
2024/02/22 14:40:36;;;;;;;0.80;0.80;;;8.90;98.20;;;;;;6056735;23;20030;-80
2024/02/22 14:43:24;;;;;;;0.75;0.75;;;8.80;1.00;;;;;;6036504;23;20059;-79
2024/02/22 14:46:15;;;;;;;1.65;1.13;;;8.90;99.90;;;;;;6036852;23;20026;-80
2024/02/22 14:49:04;;;;;;;0.98;0.82;;;8.80;99.90;;;;;;6061541;23;20027;-79
2024/02/22 14:51:54;;;;;;;0.90;0.90;;;8.80;99.90;;;;;;6042215;23;20027;-80
2024/02/22 14:54:42;;;;;;;1.75;0.93;;;8.80;99.90;;;;;;6048780;23;20045;-81
2024/02/22 14:57:32;;;;;;;0.95;0.90;;;8.80;99.90;;;;;;6048968;23;20053;-78